createdAt,value
2022-12-22T00:00:01.433Z,9.44
2022-12-22T00:02:47.816Z,9.77
2022-12-22T00:05:37.774Z,10.07
2022-12-22T00:08:24.555Z,10.18
2022-12-22T00:11:10.674Z,10.11
2022-12-22T00:13:56.692Z,10.06
2022-12-22T00:16:43.087Z,10.05
2022-12-22T00:19:32.197Z,10.53
2022-12-22T00:22:23.466Z,10.74
2022-12-22T00:25:09.383Z,10.43
2022-12-22T00:27:55.936Z,10.67
2022-12-22T00:30:41.934Z,10.65
2022-12-22T00:33:28.105Z,10.64
2022-12-22T00:36:13.958Z,10.85
2022-12-22T00:39:00.016Z,11.02
2022-12-22T00:41:45.738Z,11.02
2022-12-22T00:44:31.673Z,11.04
2022-12-22T00:47:17.459Z,10.58
2022-12-22T00:50:03.933Z,10.46
2022-12-22T00:52:50.025Z,10.75
2022-12-22T00:55:37.194Z,10.92
2022-12-22T00:58:23.110Z,11.03
2022-12-22T01:01:09.342Z,10.90
2022-12-22T01:03:55.335Z,10.55
2022-12-22T01:06:48.577Z,10.90
2022-12-22T01:09:34.605Z,10.59
2022-12-22T01:12:21.705Z,10.51
2022-12-22T01:15:07.801Z,10.33
2022-12-22T01:17:54.108Z,10.62
2022-12-22T01:20:39.861Z,10.74
2022-12-22T01:23:29.214Z,10.77
2022-12-22T01:26:15.183Z,10.27
2022-12-22T01:29:01.277Z,10.64
2022-12-22T01:31:47.680Z,10.51
2022-12-22T01:34:34.044Z,9.94
2022-12-22T01:37:19.769Z,10.04
2022-12-22T01:40:06.088Z,9.91
2022-12-22T01:42:52.826Z,10.20
2022-12-22T01:45:44.597Z,10.42
2022-12-22T01:48:31.204Z,9.74
2022-12-22T01:51:17.715Z,9.82
2022-12-22T01:54:03.446Z,9.75
2022-12-22T01:56:49.592Z,9.55
2022-12-22T01:59:35.390Z,9.60
2022-12-22T02:02:25.969Z,10.17
2022-12-22T02:05:12.260Z,9.94
2022-12-22T02:08:04.275Z,10.03
2022-12-22T02:11:08.968Z,9.65
2022-12-22T02:14:13.748Z,9.80
2022-12-22T02:17:21.106Z,10.03
2022-12-22T02:20:13.208Z,10.09
2022-12-22T02:23:04.803Z,10.29
2022-12-22T02:25:54.842Z,10.17
2022-12-22T02:28:41.133Z,9.72
2022-12-22T02:31:27.146Z,10.08
2022-12-22T02:34:13.965Z,10.44
2022-12-22T02:36:59.501Z,10.67
2022-12-22T02:39:45.965Z,10.71
2022-12-22T02:42:58.014Z,10.81
2022-12-22T02:45:58.207Z,10.73
2022-12-22T02:48:46.235Z,11.10
2022-12-22T02:51:36.425Z,10.94
2022-12-22T02:54:22.304Z,11.13
2022-12-22T02:57:08.807Z,10.95
2022-12-22T02:59:54.736Z,11.16
2022-12-22T03:02:41.331Z,11.06
2022-12-22T03:05:27.556Z,11.35
2022-12-22T03:08:13.775Z,10.99
2022-12-22T03:10:59.566Z,11.12
2022-12-22T03:13:45.791Z,10.95
2022-12-22T03:16:31.431Z,11.17
2022-12-22T03:19:17.748Z,11.07
2022-12-22T03:22:06.930Z,11.17
2022-12-22T03:24:53.389Z,11.47
2022-12-22T03:27:20.563Z,11.61
2022-12-22T03:29:48.181Z,11.38
2022-12-22T03:32:15.388Z,11.41
2022-12-22T03:34:42.684Z,11.09
2022-12-22T03:37:10.144Z,11.50
2022-12-22T03:39:37.340Z,11.53
2022-12-22T03:42:23.231Z,11.37
2022-12-22T03:45:09.299Z,11.20
2022-12-22T03:47:36.480Z,11.19
2022-12-22T03:50:04.067Z,11.24
2022-12-22T03:52:31.282Z,11.05
2022-12-22T03:54:58.427Z,11.45
2022-12-22T03:57:25.860Z,11.36
2022-12-22T03:59:53.037Z,11.62
2022-12-22T04:02:20.315Z,11.24
2022-12-22T04:04:47.897Z,11.15
2022-12-22T04:07:15.153Z,11.28
2022-12-22T04:10:02.331Z,11.38
2022-12-22T04:12:48.641Z,11.27
2022-12-22T04:15:15.889Z,11.36
2022-12-22T04:17:43.430Z,11.23
2022-12-22T04:20:10.817Z,10.83
2022-12-22T04:22:38.006Z,11.26
2022-12-22T04:25:05.715Z,11.49
2022-12-22T04:27:32.903Z,11.40
2022-12-22T04:30:00.157Z,11.38
2022-12-22T04:32:27.611Z,11.43
2022-12-22T04:34:54.782Z,11.39
2022-12-22T04:37:22.004Z,11.26
2022-12-22T04:39:49.473Z,11.58
2022-12-22T04:42:16.619Z,11.45
2022-12-22T04:44:43.823Z,11.59
2022-12-22T04:47:11.249Z,11.29
2022-12-22T04:49:38.405Z,11.51
2022-12-22T04:52:05.578Z,11.46
2022-12-22T04:54:33.066Z,11.41
2022-12-22T04:57:00.357Z,11.45
2022-12-22T04:59:27.510Z,11.16
2022-12-22T05:01:55.084Z,10.75
2022-12-22T05:04:24.038Z,11.18
2022-12-22T05:06:51.326Z,11.27
2022-12-22T05:09:18.767Z,11.11
2022-12-22T05:11:45.995Z,11.10
2022-12-22T05:14:13.167Z,11.32
2022-12-22T05:16:40.681Z,11.40
2022-12-22T05:19:07.949Z,11.17
2022-12-22T05:21:35.208Z,10.99
2022-12-22T05:24:02.695Z,11.20
2022-12-22T05:26:29.932Z,10.75
2022-12-22T05:28:57.077Z,10.93
2022-12-22T05:31:24.835Z,11.00
2022-12-22T05:33:52.226Z,11.19
2022-12-22T05:36:19.396Z,10.70
2022-12-22T05:38:46.870Z,10.83
2022-12-22T05:41:14.084Z,10.68
2022-12-22T05:43:41.359Z,10.59
2022-12-22T05:46:10.284Z,10.52
2022-12-22T05:48:39.348Z,10.75
2022-12-22T05:51:09.959Z,10.77
2022-12-22T05:53:37.753Z,10.83
2022-12-22T05:56:05.214Z,10.71
2022-12-22T05:58:33.081Z,10.60
2022-12-22T06:01:00.779Z,10.82
2022-12-22T06:03:28.747Z,10.22
2022-12-22T06:05:56.161Z,10.99
2022-12-22T06:08:23.620Z,11.27
2022-12-22T06:10:51.154Z,10.71
2022-12-22T06:13:18.362Z,10.69
2022-12-22T06:15:45.593Z,10.81
2022-12-22T06:18:13.844Z,11.08
2022-12-22T06:20:41.065Z,10.85
2022-12-22T06:23:08.249Z,11.07
2022-12-22T06:25:35.738Z,11.07
2022-12-22T06:28:02.954Z,10.90
2022-12-22T06:30:33.567Z,10.95
2022-12-22T06:33:01.767Z,10.54
2022-12-22T06:35:29.078Z,10.88
2022-12-22T06:37:56.271Z,11.24
2022-12-22T06:40:23.745Z,11.19
2022-12-22T06:43:10.025Z,11.29
2022-12-22T06:45:41.694Z,10.86
2022-12-22T06:48:09.570Z,10.98
2022-12-22T06:50:36.807Z,11.04
2022-12-22T06:53:04.369Z,11.03
2022-12-22T06:55:31.616Z,11.04
2022-12-22T06:57:58.829Z,11.28
2022-12-22T07:00:26.319Z,11.36
2022-12-22T07:02:53.800Z,11.00
2022-12-22T07:05:21.365Z,10.85
2022-12-22T07:07:48.846Z,11.31
2022-12-22T07:10:16.007Z,10.98
2022-12-22T07:12:43.203Z,11.13
2022-12-22T07:15:10.773Z,11.23
2022-12-22T07:17:38.218Z,11.17
2022-12-22T07:20:05.561Z,11.30
2022-12-22T07:22:33.012Z,11.44
2022-12-22T07:25:00.177Z,11.54
2022-12-22T07:27:27.334Z,11.28
2022-12-22T07:29:54.770Z,11.34
2022-12-22T07:32:21.995Z,11.41
2022-12-22T07:34:49.153Z,11.73
2022-12-22T07:37:16.590Z,11.17
2022-12-22T07:39:43.763Z,10.97
2022-12-22T07:42:30.735Z,11.26
2022-12-22T07:44:58.185Z,10.51
2022-12-22T07:47:28.733Z,11.02
2022-12-22T07:50:19.668Z,11.10
2022-12-22T07:52:46.821Z,10.91
2022-12-22T07:55:14.363Z,10.75
2022-12-22T07:57:41.546Z,10.61
2022-12-22T08:00:09.147Z,10.99
2022-12-22T08:02:39.688Z,11.03
2022-12-22T08:05:08.023Z,10.84
2022-12-22T08:07:35.351Z,11.16
2022-12-22T08:10:02.544Z,11.33
2022-12-22T08:12:30.880Z,11.59
2022-12-22T08:14:58.547Z,11.77
2022-12-22T08:17:29.045Z,11.93
2022-12-22T08:19:56.498Z,11.90
2022-12-22T08:22:24.065Z,11.88
2022-12-22T08:24:52.038Z,11.88
2022-12-22T08:27:26.378Z,11.33
2022-12-22T08:29:54.933Z,11.47
2022-12-22T08:32:22.426Z,9.27
2022-12-22T08:34:50.833Z,8.62
2022-12-22T08:37:18.631Z,9.60
2022-12-22T08:39:46.800Z,9.53
2022-12-22T08:42:14.473Z,9.14
2022-12-22T08:44:41.677Z,8.97
2022-12-22T08:47:16.456Z,8.93
2022-12-22T08:49:44.190Z,9.36
2022-12-22T08:52:18.062Z,9.10
2022-12-22T08:54:46.245Z,9.52
2022-12-22T08:57:13.689Z,8.82
2022-12-22T08:59:40.872Z,9.60
2022-12-22T09:02:08.146Z,8.95
2022-12-22T09:04:36.638Z,9.58
2022-12-22T09:07:03.837Z,9.21
2022-12-22T09:09:31.835Z,7.68
2022-12-22T09:11:59.287Z,8.71
2022-12-22T09:14:26.552Z,8.64
2022-12-22T09:16:53.835Z,8.78
2022-12-22T09:19:21.367Z,9.02
2022-12-22T09:21:48.538Z,7.47
2022-12-22T09:24:15.876Z,8.15
2022-12-22T09:26:49.888Z,8.22
2022-12-22T09:29:17.503Z,8.51
2022-12-22T09:31:45.137Z,8.09
2022-12-22T09:34:17.618Z,8.17
2022-12-22T09:36:46.399Z,8.42
2022-12-22T09:39:13.598Z,8.91
2022-12-22T09:41:45.358Z,8.76
2022-12-22T09:44:32.752Z,8.91
2022-12-22T09:47:01.047Z,8.92
2022-12-22T09:49:28.492Z,8.56
2022-12-22T09:51:56.817Z,9.26
2022-12-22T09:54:24.251Z,9.40
2022-12-22T09:56:51.705Z,8.73
2022-12-22T09:59:20.000Z,7.31
2022-12-22T10:02:02.079Z,8.86
2022-12-22T10:04:33.984Z,9.78
2022-12-22T10:07:19.334Z,9.87
2022-12-22T10:09:50.355Z,8.70
2022-12-22T10:12:23.041Z,8.97
2022-12-22T10:14:51.143Z,9.65
2022-12-22T10:17:25.594Z,9.24
2022-12-22T10:19:53.778Z,8.30
2022-12-22T10:22:30.125Z,9.93
2022-12-22T10:24:58.382Z,10.21
2022-12-22T10:27:29.321Z,9.51
2022-12-22T10:30:17.751Z,9.70
2022-12-22T10:33:00.426Z,9.38
2022-12-22T10:35:27.570Z,7.57
2022-12-22T10:37:55.049Z,7.34
2022-12-22T10:40:22.517Z,9.33
2022-12-22T10:42:56.133Z,8.74
2022-12-22T10:45:24.516Z,8.87
2022-12-22T10:47:52.850Z,8.97
2022-12-22T10:50:20.007Z,8.64
2022-12-22T10:52:56.965Z,7.07
2022-12-22T10:55:28.806Z,6.25
2022-12-22T10:58:08.516Z,6.65
2022-12-22T11:00:36.229Z,7.53
2022-12-22T11:03:05.129Z,8.40
2022-12-22T11:05:32.535Z,8.78
2022-12-22T11:08:19.942Z,8.10
2022-12-22T11:11:07.653Z,8.70
2022-12-22T11:13:35.623Z,9.45
2022-12-22T11:16:13.540Z,9.64
2022-12-22T11:18:46.850Z,10.19
2022-12-22T11:21:24.540Z,9.94
2022-12-22T11:24:10.565Z,9.92
2022-12-22T11:26:37.998Z,9.91
2022-12-22T11:29:11.129Z,10.28
2022-12-22T11:31:41.420Z,10.66
2022-12-22T11:34:31.288Z,10.31
2022-12-22T11:37:01.864Z,9.39
2022-12-22T11:39:38.881Z,9.79
2022-12-22T11:42:06.479Z,9.62
2022-12-22T11:44:52.490Z,8.80
2022-12-22T11:47:31.882Z,9.54
2022-12-22T11:49:59.153Z,8.87
2022-12-22T11:52:55.678Z,9.78
2022-12-22T11:55:25.827Z,10.24
2022-12-22T11:57:56.474Z,9.84
2022-12-22T12:00:32.573Z,10.59
2022-12-22T12:03:29.337Z,11.25
2022-12-22T12:06:15.362Z,10.44
2022-12-22T12:09:00.931Z,11.06
2022-12-22T12:11:34.360Z,10.58
2022-12-22T12:14:10.949Z,10.88
2022-12-22T12:16:38.115Z,10.67
2022-12-22T12:19:08.457Z,11.18
2022-12-22T12:21:38.691Z,11.26
2022-12-22T12:24:26.367Z,10.26
2022-12-22T12:26:56.343Z,9.45
2022-12-22T12:29:35.143Z,10.01
2022-12-22T12:32:05.455Z,11.08
2022-12-22T12:34:34.334Z,9.77
2022-12-22T12:37:03.106Z,11.25
2022-12-22T12:39:30.426Z,11.46
2022-12-22T12:42:07.017Z,11.89
2022-12-22T12:44:34.841Z,11.44
2022-12-22T12:47:02.325Z,11.27
2022-12-22T12:49:38.826Z,10.85
2022-12-22T12:52:06.945Z,10.27
2022-12-22T12:54:40.187Z,10.47
2022-12-22T12:57:07.575Z,9.52
2022-12-22T12:59:40.662Z,9.57
2022-12-22T13:02:26.861Z,10.06
2022-12-22T13:05:00.168Z,10.47
2022-12-22T13:07:46.239Z,10.80
2022-12-22T13:10:20.509Z,10.73
2022-12-22T13:12:51.740Z,9.32
2022-12-22T13:15:31.033Z,10.34
2022-12-22T13:17:58.735Z,9.73
2022-12-22T13:20:31.240Z,9.68
2022-12-22T13:23:00.104Z,9.75
2022-12-22T13:25:31.375Z,10.51
2022-12-22T13:27:58.853Z,11.11
2022-12-22T13:30:29.319Z,11.01
2022-12-22T13:32:58.011Z,11.67
2022-12-22T13:35:32.160Z,11.35
2022-12-22T13:38:00.893Z,11.56
2022-12-22T13:40:31.161Z,11.47
2022-12-22T13:43:02.514Z,11.55
2022-12-22T13:45:30.052Z,10.73
2022-12-22T13:47:57.435Z,11.41
2022-12-22T13:50:28.803Z,9.59
2022-12-22T13:52:56.249Z,9.57
2022-12-22T13:55:24.874Z,9.39
2022-12-22T13:57:58.282Z,8.87
2022-12-22T14:00:26.676Z,9.10
2022-12-22T14:02:54.341Z,9.40
2022-12-22T14:05:21.761Z,9.01
2022-12-22T14:08:05.372Z,9.53
2022-12-22T14:10:37.890Z,9.04
2022-12-22T14:13:06.698Z,8.76
2022-12-22T14:15:34.527Z,9.73
2022-12-22T14:18:01.769Z,9.65
2022-12-22T14:20:36.553Z,9.88
2022-12-22T14:23:19.491Z,9.06
2022-12-22T14:25:46.805Z,8.82
2022-12-22T14:28:21.981Z,9.68
2022-12-22T14:30:50.224Z,10.26
2022-12-22T14:33:28.503Z,9.63
2022-12-22T14:36:06.810Z,10.13
2022-12-22T14:38:41.168Z,10.24
2022-12-22T14:41:38.503Z,9.79
2022-12-22T14:44:05.959Z,9.33
2022-12-22T14:46:38.668Z,10.19
2022-12-22T14:49:11.294Z,10.31
2022-12-22T14:51:38.443Z,10.79
2022-12-22T14:54:05.637Z,10.87
2022-12-22T14:56:33.224Z,11.24
2022-12-22T14:59:22.261Z,11.47
2022-12-22T15:02:00.162Z,11.37
2022-12-22T15:04:27.500Z,11.34
2022-12-22T15:07:37.289Z,11.42
2022-12-22T15:10:15.118Z,11.38
2022-12-22T15:12:43.339Z,11.58
2022-12-22T15:15:15.322Z,11.16
2022-12-22T15:17:43.824Z,11.24
2022-12-22T15:20:14.223Z,10.23
2022-12-22T15:22:41.366Z,11.23
2022-12-22T15:25:15.764Z,11.12
2022-12-22T15:27:43.779Z,10.52
2022-12-22T15:30:13.713Z,10.93
2022-12-22T15:32:41.169Z,10.65
2022-12-22T15:35:16.307Z,9.80
2022-12-22T15:37:43.643Z,9.94
2022-12-22T15:40:18.124Z,10.75
2022-12-22T15:42:45.306Z,10.65
2022-12-22T15:45:13.311Z,9.89
2022-12-22T15:47:41.577Z,8.99
2022-12-22T15:50:10.816Z,10.13
2022-12-22T15:52:38.315Z,9.48
2022-12-22T15:55:05.667Z,9.80
2022-12-22T15:57:32.831Z,9.50
2022-12-22T16:00:00.483Z,9.38
2022-12-22T16:02:27.801Z,9.23
2022-12-22T16:04:58.065Z,8.70
2022-12-22T16:07:25.208Z,9.12
2022-12-22T16:09:52.346Z,9.10
2022-12-22T16:12:19.870Z,9.03
2022-12-22T16:14:50.627Z,8.83
2022-12-22T16:17:22.517Z,9.39
2022-12-22T16:19:50.037Z,9.73
2022-12-22T16:22:17.859Z,9.89
2022-12-22T16:24:45.715Z,9.61
2022-12-22T16:27:13.384Z,9.56
2022-12-22T16:29:44.363Z,9.88
2022-12-22T16:32:39.559Z,9.92
2022-12-22T16:35:14.972Z,10.42
2022-12-22T16:37:42.222Z,10.58
2022-12-22T16:40:10.025Z,10.75
2022-12-22T16:45:23.098Z,10.83
2022-12-22T16:47:51.458Z,10.95
2022-12-22T16:50:20.256Z,11.40
2022-12-22T16:52:47.894Z,11.14
2022-12-22T16:55:16.266Z,10.03
2022-12-22T16:57:43.756Z,11.41
2022-12-22T17:00:17.682Z,11.02
2022-12-22T17:02:49.848Z,11.11
2022-12-22T17:05:23.451Z,10.23
2022-12-22T17:07:50.626Z,10.56
2022-12-22T17:10:18.119Z,10.87
2022-12-22T17:12:45.334Z,10.65
2022-12-22T17:15:22.106Z,10.53
2022-12-22T17:17:51.867Z,10.82
2022-12-22T17:20:20.313Z,11.06
2022-12-22T17:23:00.665Z,10.81
2022-12-22T17:25:28.683Z,10.99
2022-12-22T17:27:58.963Z,11.40
2022-12-22T17:30:26.615Z,11.00
2022-12-22T17:32:54.128Z,11.02
2022-12-22T17:35:22.731Z,10.41
2022-12-22T17:37:49.877Z,11.23
2022-12-22T17:40:27.539Z,11.27
2022-12-22T17:42:54.952Z,11.29
2022-12-22T17:45:22.483Z,10.95
2022-12-22T17:47:49.867Z,10.74
2022-12-22T17:50:20.468Z,10.26
2022-12-22T17:52:48.032Z,10.31
2022-12-22T17:56:06.018Z,10.55
2022-12-22T17:58:16.386Z,10.69
2022-12-22T18:00:43.775Z,10.28
2022-12-22T18:03:14.935Z,10.45
2022-12-22T18:05:43.520Z,10.59
2022-12-22T18:08:18.663Z,10.90
2022-12-22T18:10:45.899Z,10.71
2022-12-22T18:13:17.860Z,11.20
2022-12-22T18:15:45.124Z,11.22
2022-12-22T18:18:13.913Z,11.04
2022-12-22T18:20:41.504Z,11.19
2022-12-22T18:23:15.466Z,11.15
2022-12-22T18:25:43.043Z,10.85
2022-12-22T18:28:14.764Z,11.19
2022-12-22T18:30:42.087Z,11.36
2022-12-22T18:33:09.669Z,11.17
2022-12-22T18:35:37.059Z,10.85
2022-12-22T18:38:04.409Z,11.37
2022-12-22T18:40:31.809Z,11.20
2022-12-22T18:42:59.569Z,11.36
2022-12-22T18:45:27.854Z,11.31
2022-12-22T18:47:55.699Z,11.54
2022-12-22T18:50:23.907Z,11.68
2022-12-22T18:52:54.998Z,12.00
2022-12-22T18:55:26.928Z,12.00
2022-12-22T18:57:54.690Z,11.60
2022-12-22T19:00:26.098Z,11.72
2022-12-22T19:02:57.706Z,11.60
2022-12-22T19:05:28.010Z,11.63
2022-12-22T19:07:55.644Z,11.66
2022-12-22T19:10:27.823Z,11.55
2022-12-22T19:12:55.820Z,11.86
2022-12-22T19:15:30.738Z,12.19
2022-12-22T19:17:57.928Z,12.29
2022-12-22T19:20:26.125Z,11.88
2022-12-22T19:22:53.860Z,12.16
2022-12-22T19:25:22.115Z,12.08
2022-12-22T19:27:51.504Z,12.06
2022-12-22T19:30:20.233Z,12.39
2022-12-22T19:32:50.180Z,12.40
2022-12-22T19:35:19.687Z,12.06
2022-12-22T19:37:48.078Z,11.77
2022-12-22T19:40:15.598Z,11.89
2022-12-22T19:42:44.007Z,12.10
2022-12-22T19:45:21.274Z,11.95
2022-12-22T19:47:50.733Z,11.20
2022-12-22T19:50:20.257Z,10.98
2022-12-22T19:52:48.241Z,11.33
2022-12-22T19:55:16.269Z,10.86
2022-12-22T19:57:43.706Z,10.44
2022-12-22T20:00:21.138Z,10.96
2022-12-22T20:02:49.882Z,9.90
2022-12-22T20:05:17.899Z,9.88
2022-12-22T20:07:45.395Z,9.27
2022-12-22T20:10:12.842Z,10.40
2022-12-22T20:12:42.352Z,9.10
2022-12-22T20:15:20.181Z,8.96
2022-12-22T20:17:48.925Z,8.73
2022-12-22T20:20:17.567Z,8.40
2022-12-22T20:22:46.323Z,8.11
2022-12-22T20:25:17.167Z,9.06
2022-12-22T20:27:44.653Z,8.70
2022-12-22T20:30:32.512Z,9.26
2022-12-22T20:33:00.406Z,9.49
2022-12-22T20:35:27.700Z,8.83
2022-12-22T20:37:55.284Z,8.43
2022-12-22T20:40:24.689Z,9.02
2022-12-22T20:42:52.719Z,9.52
2022-12-22T20:45:23.204Z,9.58
2022-12-22T20:47:50.817Z,9.71
2022-12-22T20:50:26.164Z,9.15
2022-12-22T20:52:54.622Z,8.80
2022-12-22T20:55:23.412Z,9.71
2022-12-22T20:57:51.113Z,8.79
2022-12-22T21:00:19.733Z,9.52
2022-12-22T21:02:47.006Z,9.22
2022-12-22T21:05:15.543Z,9.91
2022-12-22T21:07:44.093Z,10.00
2022-12-22T21:10:14.353Z,9.82
2022-12-22T21:12:41.860Z,10.45
2022-12-22T21:15:09.803Z,10.24
2022-12-22T21:17:37.040Z,10.53
2022-12-22T21:20:04.752Z,10.47
2022-12-22T21:22:32.268Z,10.43
2022-12-22T21:24:59.448Z,10.20
2022-12-22T21:27:26.744Z,10.41
2022-12-22T21:29:54.168Z,11.40
2022-12-22T21:32:21.335Z,11.51
2022-12-22T21:34:48.510Z,11.64
2022-12-22T21:37:16.657Z,11.94
2022-12-22T21:39:47.636Z,12.16
2022-12-22T21:42:15.212Z,12.08
2022-12-22T21:44:42.728Z,11.97
2022-12-22T21:47:14.803Z,11.72
2022-12-22T21:49:44.990Z,12.01
2022-12-22T21:52:12.428Z,12.57
2022-12-22T21:54:39.577Z,12.77
2022-12-22T21:57:06.747Z,12.00
2022-12-22T21:59:34.218Z,12.72
2022-12-22T22:02:01.543Z,12.11
2022-12-22T22:04:29.167Z,12.18
2022-12-22T22:06:56.866Z,11.84
2022-12-22T22:09:24.206Z,12.09
2022-12-22T22:12:13.301Z,12.14
2022-12-22T22:14:40.457Z,12.09
2022-12-22T22:17:08.722Z,11.67
2022-12-22T22:19:35.958Z,11.81
2022-12-22T22:22:03.588Z,11.86
2022-12-22T22:24:31.162Z,11.95
2022-12-22T22:27:02.626Z,11.63
2022-12-22T22:29:29.808Z,12.06
2022-12-22T22:31:57.302Z,12.24
2022-12-22T22:34:26.714Z,11.63
2022-12-22T22:36:53.921Z,12.01
2022-12-22T22:39:22.121Z,11.92
2022-12-22T22:41:51.544Z,11.80
2022-12-22T22:44:21.102Z,12.41
2022-12-22T22:46:48.600Z,12.17
2022-12-22T22:49:15.824Z,12.28
2022-12-22T22:51:43.026Z,12.89
2022-12-22T22:54:11.446Z,13.14
2022-12-22T22:56:38.846Z,13.05
2022-12-22T22:59:06.043Z,12.99
2022-12-22T23:01:33.532Z,13.14
2022-12-22T23:04:00.834Z,12.99
2022-12-22T23:06:28.127Z,12.59
2022-12-22T23:08:55.572Z,12.99
2022-12-22T23:11:25.242Z,13.08
2022-12-22T23:13:55.317Z,13.37
2022-12-22T23:16:24.441Z,13.17
2022-12-22T23:18:54.870Z,12.35
2022-12-22T23:21:27.371Z,12.66
2022-12-22T23:23:58.065Z,12.78
2022-12-22T23:26:25.545Z,13.09
2022-12-22T23:28:56.456Z,12.72
2022-12-22T23:31:26.840Z,12.96
2022-12-22T23:33:55.653Z,12.95
2022-12-22T23:36:22.824Z,12.80
2022-12-22T23:38:51.785Z,11.75
2022-12-22T23:41:19.321Z,12.06
2022-12-22T23:43:46.502Z,12.18
2022-12-22T23:46:16.013Z,12.77
2022-12-22T23:48:43.214Z,11.64
2022-12-22T23:51:10.795Z,12.50
2022-12-22T23:53:38.815Z,11.27
2022-12-22T23:56:06.126Z,11.79
2022-12-22T23:58:33.377Z,10.80
